Time;durP1;ratioP1;P1;durP2;ratioP2;P2;SDS_P1;SDS_P2;PMS_P1;PMS_P2;Temp;Humidity;BMP_temperature;BMP_pressure;BME280_temperature;BME280_humidity;BME280_pressure;Samples;Min_cycle;Max_cycle;Signal;HPM_P1;HPM_P2
2020/12/09 00:00:10;;;;;;;35.25;20.60;;;;;;;2.43;85.69;99435.31;5038311;28;20444;-76
2020/12/09 00:05:12;;;;;;;34.67;20.25;;;;;;;2.49;85.43;99443.91;5611838;22;20078;-78
2020/12/09 00:07:39;;;;;;;36.03;21.00;;;;;;;2.43;86.08;99445.78;5046733;28;20049;-78
2020/12/09 00:10:06;;;;;;;32.58;19.85;;;;;;;2.43;85.32;99447.53;5049773;28;20080;-78
2020/12/09 00:12:34;;;;;;;34.92;20.60;;;;;;;2.38;86.07;99450.25;5050133;28;20132;-77
2020/12/09 00:15:01;;;;;;;34.33;20.15;;;;;;;2.27;85.88;99435.81;5047478;28;20045;-78
2020/12/09 00:17:30;;;;;;;33.35;20.42;;;;;;;2.38;86.19;99449.41;5043663;28;20128;-78
2020/12/09 00:19:57;;;;;;;38.55;21.42;;;;;;;2.41;86.38;99444.09;5047473;28;20094;-78
2020/12/09 00:22:24;;;;;;;35.75;20.45;;;;;;;2.52;86.06;99433.34;5046036;28;20519;-77
2020/12/09 00:24:51;;;;;;;35.30;20.77;;;;;;;2.62;84.98;99430.41;5046612;28;20037;-77
2020/12/09 00:27:17;;;;;;;32.63;19.45;;;;;;;2.66;84.71;99439.03;5045285;28;20130;-77
2020/12/09 00:29:44;;;;;;;35.70;20.42;;;;;;;2.63;84.57;99439.97;5046760;28;20502;-78
2020/12/09 00:32:11;;;;;;;34.90;20.77;;;;;;;2.56;84.60;99448.03;5047902;28;20041;-77
2020/12/09 00:34:37;;;;;;;32.10;19.83;;;;;;;2.52;85.12;99439.41;5052862;28;20567;-77
2020/12/09 00:37:03;;;;;;;38.55;20.33;;;;;;;2.59;85.55;99438.34;5050806;28;20048;-77
2020/12/09 00:39:30;;;;;;;33.97;19.13;;;;;;;2.66;85.10;99441.63;5050814;28;20434;-75
2020/12/09 00:41:56;;;;;;;34.60;19.63;;;;;;;2.68;84.46;99450.25;5049017;28;20041;-78
2020/12/09 00:44:22;;;;;;;30.83;18.63;;;;;;;2.71;84.48;99452.78;5051063;28;20045;-76
2020/12/09 00:46:48;;;;;;;30.88;19.30;;;;;;;2.70;84.76;99456.31;5044500;28;20045;-76
2020/12/09 00:49:15;;;;;;;33.30;19.23;;;;;;;2.71;84.01;99448.41;5048354;28;20049;-76
2020/12/09 00:51:41;;;;;;;32.55;19.65;;;;;;;2.74;84.71;99455.31;5049575;28;20061;-77
2020/12/09 00:54:08;;;;;;;31.48;18.80;;;;;;;2.76;83.81;99469.19;5051376;28;20072;-78
2020/12/09 00:56:34;;;;;;;30.38;18.60;;;;;;;2.70;84.42;99470.22;5047152;28;20041;-77
2020/12/09 00:59:03;;;;;;;31.52;18.92;;;;;;;2.74;84.26;99476.22;5044294;28;20041;-79
2020/12/09 01:01:29;;;;;;;29.23;18.70;;;;;;;2.79;83.94;99474.34;5051527;28;20045;-77
2020/12/09 01:03:57;;;;;;;33.88;19.30;;;;;;;2.78;83.48;99476.09;5048566;28;20048;-77
2020/12/09 01:06:24;;;;;;;30.83;19.75;;;;;;;2.71;83.58;99485.00;5043520;28;20055;-78
2020/12/09 01:08:50;;;;;;;34.72;18.95;;;;;;;2.63;84.30;99480.94;5042243;28;20159;-78
2020/12/09 01:11:21;;;;;;;30.92;18.42;;;;;;;2.56;84.35;99469.78;5045467;28;20460;-76
2020/12/09 01:13:48;;;;;;;32.50;19.27;;;;;;;2.59;84.65;99480.16;5042431;28;20045;-76
2020/12/09 01:16:15;;;;;;;31.55;19.23;;;;;;;2.60;85.02;99491.47;5044666;28;20044;-78
2020/12/09 01:18:42;;;;;;;32.72;19.60;;;;;;;2.60;84.92;99488.84;5043550;28;20099;-77
2020/12/09 01:21:09;;;;;;;31.40;19.08;;;;;;;2.63;84.70;99494.84;5045991;28;20073;-78
2020/12/09 01:23:35;;;;;;;30.63;19.27;;;;;;;2.64;84.79;99500.94;5046001;28;20389;-77
2020/12/09 01:26:09;;;;;;;32.88;20.67;;;;;;;2.62;84.62;99495.75;5048949;28;20048;-76
2020/12/09 01:28:36;;;;;;;37.67;19.77;;;;;;;2.64;84.95;99485.25;5041217;28;20049;-76
2020/12/09 01:31:02;;;;;;;30.38;19.25;;;;;;;2.65;84.65;99482.59;5047433;28;20398;-76
2020/12/09 01:33:29;;;;;;;32.70;20.17;;;;;;;2.65;84.96;99486.97;5046071;28;20046;-78
2020/12/09 01:35:55;;;;;;;33.08;19.77;;;;;;;2.60;84.52;99481.88;5042996;28;20423;-76
2020/12/09 01:38:22;;;;;;;32.65;19.85;;;;;;;2.61;85.01;99488.81;5044101;28;20380;-74
2020/12/09 01:40:48;;;;;;;30.65;19.52;;;;;;;2.66;84.93;99493.91;5045718;28;20615;-76
2020/12/09 01:43:15;;;;;;;32.25;19.60;;;;;;;2.66;84.62;99493.91;5046468;28;20072;-77
2020/12/09 01:45:41;;;;;;;29.65;19.30;;;;;;;2.72;84.78;99491.09;5047693;28;20432;-77
2020/12/09 01:48:09;;;;;;;34.08;19.27;;;;;;;2.79;84.63;99495.25;5040194;28;20737;-75
2020/12/09 01:50:36;;;;;;;32.65;19.35;;;;;;;2.89;84.10;99495.81;5042800;28;20049;-75
2020/12/09 01:53:03;;;;;;;31.33;18.73;;;;;;;3.00;83.50;99496.34;5043231;28;20056;-79
2020/12/09 01:55:29;;;;;;;31.27;18.45;;;;;;;2.95;83.49;99493.03;5046501;28;20055;-80
2020/12/09 01:57:56;;;;;;;31.08;18.92;;;;;;;2.96;83.46;99502.59;5043695;28;20535;-75
2020/12/09 02:00:22;;;;;;;31.52;18.90;;;;;;;2.93;84.00;99500.06;5051763;28;20117;-79
2020/12/09 02:02:50;;;;;;;33.40;19.08;;;;;;;2.96;83.68;99507.84;5322092;22;20383;-84
2020/12/09 02:05:17;;;;;;;30.63;19.25;;;;;;;2.95;83.04;99501.75;5056123;28;20203;-84
2020/12/09 02:07:50;;;;;;;28.75;18.08;;;;;;;2.89;83.27;99499.31;5047915;28;20037;-85
2020/12/09 02:10:21;;;;;;;30.75;19.17;;;;;;;2.93;83.18;99506.16;5056991;28;20220;-85
2020/12/09 02:12:47;;;;;;;31.77;19.50;;;;;;;2.83;83.50;99489.03;5052742;28;20079;-85
2020/12/09 02:15:14;;;;;;;33.05;19.45;;;;;;;2.84;83.77;99498.56;5039025;28;20045;-85
2020/12/09 02:17:42;;;;;;;33.00;21.13;;;;;;;2.81;83.90;99510.00;5045801;28;20080;-85
2020/12/09 02:20:09;;;;;;;34.90;19.98;;;;;;;2.72;83.78;99506.78;5049929;28;20051;-85
2020/12/09 02:22:36;;;;;;;34.20;20.08;;;;;;;2.58;84.51;99491.50;5056858;28;20135;-86
2020/12/09 02:25:03;;;;;;;32.35;18.75;;;;;;;2.70;84.69;99508.59;5045830;28;20045;-86
2020/12/09 02:27:30;;;;;;;33.38;20.30;;;;;;;2.75;84.70;99522.38;5040834;28;20053;-86
2020/12/09 02:29:56;;;;;;;33.83;20.15;;;;;;;2.78;84.57;99522.31;5052911;28;20144;-84
2020/12/09 02:32:23;;;;;;;36.40;20.65;;;;;;;2.76;84.90;99517.13;5051924;28;20059;-85
2020/12/09 02:34:49;;;;;;;33.85;20.67;;;;;;;2.81;84.51;99517.00;5055815;28;20359;-85
2020/12/09 02:37:16;;;;;;;31.20;19.55;;;;;;;2.83;84.28;99511.72;5046281;28;20060;-85
2020/12/09 02:39:42;;;;;;;31.17;19.67;;;;;;;2.86;84.54;99517.69;5049003;28;20060;-87
2020/12/09 02:42:09;;;;;;;34.08;20.58;;;;;;;2.84;84.18;99514.25;5050189;28;20045;-84
2020/12/09 02:44:35;;;;;;;29.90;18.77;;;;;;;2.76;84.67;99513.66;5045296;28;20148;-85
2020/12/09 02:47:02;;;;;;;32.28;18.92;;;;;;;2.84;84.73;99519.50;5058764;28;20445;-86
2020/12/09 02:49:30;;;;;;;30.48;18.75;;;;;;;2.72;84.66;99491.09;5052435;28;20059;-85
2020/12/09 02:52:00;;;;;;;;;;;;;;;2.95;84.73;99525.28;5053537;28;20079;-87
2020/12/09 02:54:27;;;;;;;29.92;18.73;;;;;;;2.93;83.96;99500.06;5056270;28;19948;-85
2020/12/09 02:56:53;;;;;;;31.25;18.45;;;;;;;3.00;83.39;99512.91;5052650;28;20052;-85
2020/12/09 02:59:20;;;;;;;33.75;20.30;;;;;;;3.10;82.95;99524.81;5055629;28;20057;-84
2020/12/09 03:01:48;;;;;;;31.02;18.02;;;;;;;3.06;83.37;99517.97;5059203;28;20048;-84
2020/12/09 03:04:18;;;;;;;33.45;19.02;;;;;;;2.95;83.02;99495.66;5067296;28;20029;-87
2020/12/09 03:06:45;;;;;;;31.63;19.73;;;;;;;2.98;82.62;99516.50;5063084;28;20076;-86
2020/12/09 03:09:15;;;;;;;32.08;20.05;;;;;;;2.88;83.60;99513.28;5057900;28;20049;-85
2020/12/09 03:11:43;;;;;;;33.28;20.08;;;;;;;2.81;82.88;99517.00;5091322;28;20119;-83
2020/12/09 03:14:09;;;;;;;33.20;20.80;;;;;;;2.68;83.44;99500.78;5068924;28;20111;-84
2020/12/09 03:16:36;;;;;;;33.88;19.33;;;;;;;2.78;83.44;99522.31;5054517;28;20053;-85
2020/12/09 03:19:02;;;;;;;32.85;20.17;;;;;;;2.68;84.31;99513.00;5061289;28;20049;-86
2020/12/09 03:21:32;;;;;;;31.45;19.85;;;;;;;2.69;84.22;99526.03;5059586;28;20068;-86
2020/12/09 03:23:59;;;;;;;41.07;21.17;;;;;;;2.66;84.46;99520.91;5066312;28;20060;-85
2020/12/09 03:26:26;;;;;;;33.03;20.27;;;;;;;2.65;84.74;99515.72;5064240;28;20108;-85
2020/12/09 03:28:53;;;;;;;34.92;20.10;;;;;;;2.79;84.65;99532.72;5063533;28;20064;-87
2020/12/09 03:31:20;;;;;;;34.15;20.90;;;;;;;2.86;84.07;99550.81;5069265;28;20029;-87
2020/12/09 03:33:48;;;;;;;34.28;20.35;;;;;;;2.81;84.60;99546.59;5074771;28;20056;-86
2020/12/09 03:36:15;;;;;;;34.00;20.73;;;;;;;2.83;84.52;99540.47;5080221;28;20033;-87
2020/12/09 03:38:42;;;;;;;31.40;19.90;;;;;;;2.86;84.08;99542.97;5074669;28;20067;-86
2020/12/09 03:41:10;;;;;;;34.88;20.95;;;;;;;2.99;83.76;99550.41;5070738;28;20076;-86
2020/12/09 03:43:36;;;;;;;33.78;20.50;;;;;;;3.04;83.22;99552.91;5065135;28;20195;-85
2020/12/09 03:46:03;;;;;;;35.10;21.15;;;;;;;3.00;83.44;99557.34;5056904;28;20120;-85
2020/12/09 03:48:29;;;;;;;36.80;21.65;;;;;;;3.02;82.77;99562.53;5056368;28;20059;-86
2020/12/09 03:50:56;;;;;;;38.95;20.63;;;;;;;2.89;83.37;99564.66;5056096;28;20628;-86
2020/12/09 03:53:22;;;;;;;37.30;20.48;;;;;;;2.80;83.64;99570.19;5063237;28;20056;-86
2020/12/09 03:55:49;;;;;;;36.92;21.50;;;;;;;2.64;83.88;99566.28;5052290;28;20041;-86
2020/12/09 03:58:16;;;;;;;37.33;21.80;;;;;;;2.54;83.91;99564.81;5055739;28;20041;-86
2020/12/09 04:00:42;;;;;;;38.20;22.33;;;;;;;2.47;84.67;99569.34;5071718;28;20048;-87
2020/12/09 04:03:09;;;;;;;36.10;21.50;;;;;;;2.52;84.51;99577.09;5054042;28;20407;-85
2020/12/09 04:05:35;;;;;;;37.78;22.33;;;;;;;2.44;84.75;99579.88;5056262;28;20133;-85
2020/12/09 04:08:02;;;;;;;38.17;23.55;;;;;;;2.34;85.37;99579.28;5054090;28;20452;-86
2020/12/09 04:10:28;;;;;;;39.17;22.85;;;;;;;2.36;85.58;99581.88;5056180;28;20045;-86
2020/12/09 04:12:54;;;;;;;36.25;22.45;;;;;;;2.41;85.40;99590.41;5069870;28;20101;-86
2020/12/09 04:15:21;;;;;;;40.33;22.60;;;;;;;2.46;85.25;99592.03;5063068;28;20067;-85
2020/12/09 04:17:47;;;;;;;38.53;23.38;;;;;;;2.48;85.13;99591.97;5067747;28;20072;-86
2020/12/09 04:20:14;;;;;;;37.75;22.83;;;;;;;2.60;84.54;99601.25;5055536;28;20124;-87
2020/12/09 04:22:40;;;;;;;39.03;23.67;;;;;;;2.65;84.02;99601.97;5056387;28;20147;-86
2020/12/09 04:25:06;;;;;;;38.05;22.05;;;;;;;2.57;84.10;99599.56;5075315;28;20032;-87
2020/12/09 04:27:33;;;;;;;42.72;23.65;;;;;;;2.44;84.45;99604.25;5070748;28;20041;-84
2020/12/09 04:30:00;;;;;;;40.80;23.85;;;;;;;2.32;84.83;99612.44;5076451;28;20051;-84
2020/12/09 04:32:30;;;;;;;;;;;;;;;2.24;85.56;99609.16;5067737;28;20048;-85
2020/12/09 04:34:58;;;;;;;40.40;23.15;;;;;;;2.22;86.48;99605.72;5065653;28;19925;-86
2020/12/09 04:37:27;;;;;;;43.83;24.23;;;;;;;2.24;86.21;99610.91;5068517;28;20052;-85
2020/12/09 04:39:56;;;;;;;42.20;23.17;;;;;;;2.22;85.23;99616.16;5058726;28;20403;-86
2020/12/09 04:42:26;;;;;;;44.15;24.60;;;;;;;2.16;86.16;99616.34;5052584;28;20098;-86
2020/12/09 04:44:53;;;;;;;43.83;24.30;;;;;;;2.07;86.25;99617.41;5053874;28;20049;-86
2020/12/09 04:47:41;;;;;;;43.25;24.92;;;;;;;2.05;86.48;99613.97;5055839;28;20116;-86
2020/12/09 04:50:12;;;;;;;43.42;24.13;;;;;;;2.03;86.80;99607.09;5044914;28;20049;-85
2020/12/09 04:52:43;;;;;;;42.15;24.30;;;;;;;2.13;86.67;99605.97;5045865;28;20045;-85
2020/12/09 04:55:12;;;;;;;42.30;23.20;;;;;;;2.12;86.04;99614.69;5057443;28;20132;-86
2020/12/09 04:57:43;;;;;;;39.65;23.30;;;;;;;2.16;86.70;99610.25;5051259;28;20045;-86
2020/12/09 05:00:12;;;;;;;41.17;23.05;;;;;;;2.17;86.79;99612.81;5053715;28;20056;-86
2020/12/09 05:02:44;;;;;;;42.60;23.55;;;;;;;2.16;86.73;99611.09;5049556;28;20046;-86
2020/12/09 05:05:16;;;;;;;38.78;22.42;;;;;;;2.23;86.72;99620.50;5041223;28;20079;-85
2020/12/09 05:07:53;;;;;;;40.92;23.33;;;;;;;2.24;86.24;99613.50;5038775;28;20126;-86
2020/12/09 05:10:24;;;;;;;32.30;18.27;;;;;;;2.23;86.10;99601.34;5055554;28;20126;-86
2020/12/09 05:12:53;;;;;;;37.78;22.33;;;;;;;2.23;86.11;99609.19;5049900;28;20040;-87
2020/12/09 05:15:24;;;;;;;40.60;23.73;;;;;;;2.27;85.97;99616.06;5062373;28;20053;-85
2020/12/09 05:18:05;;;;;;;39.65;23.83;;;;;;;2.26;86.13;99617.81;5058291;28;20060;-86
2020/12/09 05:20:36;;;;;;;41.83;24.00;;;;;;;2.25;86.22;99608.25;5058718;28;20140;-86
2020/12/09 05:23:04;;;;;;;40.00;22.00;;;;;;;2.25;85.93;99612.63;5067858;28;20069;-86
2020/12/09 05:25:33;;;;;;;40.17;23.00;;;;;;;2.23;86.80;99612.66;5058644;28;20056;-85
2020/12/09 05:28:01;;;;;;;41.67;23.17;;;;;;;2.28;85.93;99618.63;5050286;28;20050;-86
2020/12/09 05:30:42;;;;;;;39.17;23.05;;;;;;;2.35;85.21;99611.50;5063597;28;20052;-87
2020/12/09 05:33:11;;;;;;;40.33;23.13;;;;;;;2.33;85.54;99605.44;5065577;28;20060;-83
2020/12/09 05:35:40;;;;;;;40.30;23.52;;;;;;;2.33;85.29;99619.38;5063826;28;20099;-85
2020/12/09 05:38:12;;;;;;;41.00;24.88;;;;;;;2.30;86.42;99614.22;5074052;28;20100;-84
2020/12/09 05:40:41;;;;;;;43.45;23.20;;;;;;;2.27;85.63;99618.66;5074644;28;20096;-86
2020/12/09 05:43:15;;;;;;;39.25;22.38;;;;;;;2.26;86.28;99623.03;5074474;28;20112;-85
2020/12/09 05:45:45;;;;;;;40.05;23.10;;;;;;;2.25;86.67;99621.31;5054268;28;20091;-85
2020/12/09 05:48:24;;;;;;;46.20;23.17;;;;;;;2.24;86.25;99623.97;5041447;28;20057;-86
2020/12/09 05:50:58;;;;;;;39.10;22.85;;;;;;;2.23;86.07;99623.09;5058711;28;20049;-87
2020/12/09 05:53:27;;;;;;;39.20;23.67;;;;;;;2.25;86.70;99623.06;5060464;28;20059;-86
2020/12/09 05:56:18;;;;;;;40.90;23.73;;;;;;;2.27;86.01;99613.44;5062408;28;20046;-86
2020/12/09 05:58:46;;;;;;;42.72;23.60;;;;;;;2.26;86.61;99616.94;5058614;28;20059;-86
2020/12/09 06:01:20;;;;;;;39.92;22.90;;;;;;;2.29;86.55;99625.56;5059078;28;20055;-86
2020/12/09 06:03:48;;;;;;;40.45;23.08;;;;;;;2.27;85.76;99632.59;5060460;28;20048;-86
2020/12/09 06:06:29;;;;;;;42.17;23.33;;;;;;;2.27;86.42;99631.72;5051393;28;20053;-86
2020/12/09 06:09:00;;;;;;;38.10;22.77;;;;;;;2.25;85.89;99636.97;5056298;28;20037;-90
2020/12/09 06:11:33;;;;;;;39.35;23.65;;;;;;;2.34;85.84;99639.38;5067491;28;20064;-85
2020/12/09 06:14:00;;;;;;;39.33;23.02;;;;;;;2.36;85.58;99639.34;5067890;28;20052;-84
2020/12/09 06:16:27;;;;;;;36.17;22.10;;;;;;;2.30;85.73;99635.13;5070733;28;20049;-86
2020/12/09 06:18:56;;;;;;;39.35;22.42;;;;;;;2.24;85.79;99637.88;5057936;28;20045;-85
2020/12/09 06:21:24;;;;;;;42.25;23.77;;;;;;;2.23;86.00;99646.59;5066942;28;20108;-84
2020/12/09 06:23:54;;;;;;;40.22;23.80;;;;;;;2.22;86.38;99649.25;5067626;28;20049;-83
2020/12/09 06:26:21;;;;;;;39.33;23.63;;;;;;;2.24;86.23;99655.31;5064432;28;20064;-84
2020/12/09 06:28:51;;;;;;;40.42;23.15;;;;;;;2.26;86.58;99648.28;5063278;28;20417;-84
2020/12/09 06:31:21;;;;;;;39.45;23.60;;;;;;;2.25;85.84;99647.44;5064188;28;20049;-83
2020/12/09 06:33:54;;;;;;;42.10;24.02;;;;;;;2.24;86.43;99642.25;5060525;28;20114;-85
2020/12/09 06:36:22;;;;;;;42.42;24.00;;;;;;;2.26;85.89;99658.75;5057403;28;20077;-83
2020/12/09 06:39:16;;;;;;;43.80;24.00;;;;;;;2.14;86.15;99664.28;5055481;28;20051;-86
2020/12/09 06:41:55;;;;;;;39.38;23.50;;;;;;;2.07;87.08;99669.63;5050603;28;20040;-86
2020/12/09 06:44:28;;;;;;;46.17;23.95;;;;;;;2.04;86.69;99667.13;5069733;28;20119;-85
2020/12/09 06:46:55;;;;;;;44.33;24.73;;;;;;;1.98;87.03;99669.88;5057593;28;20040;-84
2020/12/09 06:49:28;;;;;;;45.72;24.88;;;;;;;1.95;87.95;99659.50;5062972;28;20045;-83
2020/12/09 06:51:56;;;;;;;46.80;24.58;;;;;;;1.95;87.94;99658.63;5071834;28;20041;-86
2020/12/09 06:54:39;;;;;;;46.22;24.25;;;;;;;1.95;88.00;99662.09;5073094;28;20100;-85
2020/12/09 06:57:15;;;;;;;41.80;24.52;;;;;;;1.95;88.20;99664.72;5066859;28;20092;-86
2020/12/09 06:59:46;;;;;;;41.53;23.63;;;;;;;1.93;88.18;99663.88;5058249;28;20049;-84
2020/12/09 07:02:29;;;;;;;41.55;23.35;;;;;;;1.92;88.06;99674.38;5050803;28;20037;-85
2020/12/09 07:05:00;;;;;;;41.25;24.35;;;;;;;1.91;88.44;99672.66;5058250;28;20071;-85
2020/12/09 07:07:40;;;;;;;41.65;24.02;;;;;;;1.89;88.06;99669.25;5057071;28;20112;-84
2020/12/09 07:10:23;;;;;;;44.35;24.77;;;;;;;1.87;87.76;99671.88;5060010;28;20072;-83
2020/12/09 07:13:03;;;;;;;43.00;24.27;;;;;;;1.79;88.48;99681.63;5059537;28;20139;-84
2020/12/09 07:15:30;;;;;;;48.35;24.73;;;;;;;1.82;88.36;99676.34;5059738;28;20082;-86
2020/12/09 07:17:57;;;;;;;47.30;25.08;;;;;;;1.79;88.61;99680.75;5065978;28;20064;-85
2020/12/09 07:20:25;;;;;;;46.38;26.75;;;;;;;1.80;88.42;99695.53;5056079;28;20076;-84
2020/12/09 07:22:52;;;;;;;42.90;23.90;;;;;;;1.78;88.55;99706.00;5054837;28;20052;-84
2020/12/09 07:25:19;;;;;;;46.13;25.17;;;;;;;1.74;88.91;99692.16;5051417;28;20045;-86
2020/12/09 07:27:47;;;;;;;47.63;26.08;;;;;;;1.88;89.27;99691.00;5061581;28;20061;-87
2020/12/09 07:30:15;;;;;;;45.13;24.63;;;;;;;1.95;88.44;99695.19;5067184;28;20045;-84
2020/12/09 07:32:42;;;;;;;41.83;23.65;;;;;;;1.88;88.24;99706.69;5062275;28;20116;-85
2020/12/09 07:35:12;;;;;;;45.03;24.92;;;;;;;1.89;87.89;99722.28;5050381;28;20561;-85
2020/12/09 07:37:43;;;;;;;43.25;25.10;;;;;;;1.91;88.67;99740.53;5050817;28;20102;-85
2020/12/09 07:40:33;;;;;;;45.40;26.17;;;;;;;1.86;88.59;99745.88;5054770;28;20056;-85
2020/12/09 07:43:10;;;;;;;48.25;24.88;;;;;;;1.89;88.00;99742.34;5055122;28;20056;-85
2020/12/09 07:45:38;;;;;;;43.72;23.98;;;;;;;1.90;88.42;99744.88;5052315;28;20041;-85
2020/12/09 07:48:12;;;;;;;44.80;24.65;;;;;;;1.96;88.42;99743.91;5048937;28;20037;-85
2020/12/09 07:50:40;;;;;;;45.22;26.40;;;;;;;1.96;88.24;99743.91;5047719;28;20045;-85
2020/12/09 07:53:12;;;;;;;45.55;24.92;;;;;;;1.89;87.57;99742.34;5055898;28;20061;-82
2020/12/09 07:55:39;;;;;;;48.08;25.95;;;;;;;1.93;87.97;99744.81;5058684;28;20116;-86
2020/12/09 07:58:11;;;;;;;46.25;25.08;;;;;;;1.98;88.08;99747.34;5054353;28;20040;-85
2020/12/09 08:00:49;;;;;;;47.17;25.55;;;;;;;1.98;88.39;99756.03;5056514;28;20136;-84
2020/12/09 08:03:21;;;;;;;43.13;25.45;;;;;;;1.85;87.80;99735.47;5064394;28;20045;-86
2020/12/09 08:05:52;;;;;;;44.17;26.05;;;;;;;1.98;88.05;99752.56;5062881;28;20041;-85
2020/12/09 08:08:21;;;;;;;46.95;25.65;;;;;;;2.00;87.95;99758.63;5063816;28;20049;-86
2020/12/09 08:10:53;;;;;;;34.58;19.33;;;;;;;2.06;87.47;99756.72;5066439;28;20029;-85
2020/12/09 08:13:21;;;;;;;41.88;25.17;;;;;;;2.15;87.49;99760.88;5064010;28;20049;-84
2020/12/09 08:16:02;;;;;;;49.40;25.75;;;;;;;2.14;87.38;99764.38;5067870;28;20125;-87
2020/12/09 08:18:43;;;;;;;46.65;26.60;;;;;;;2.11;87.54;99773.16;5053603;28;20045;-87
2020/12/09 08:21:11;;;;;;;45.75;25.23;;;;;;;2.22;88.82;99772.88;5057078;28;20053;-86
2020/12/09 08:23:37;;;;;;;49.75;26.75;;;;;;;2.46;90.32;99788.00;5068396;28;20060;-84
2020/12/09 08:26:07;;;;;;;47.13;25.73;;;;;;;2.75;89.47;99792.53;5072242;28;20045;-84
2020/12/09 08:28:45;;;;;;;44.15;24.33;;;;;;;2.87;86.87;99793.97;5059943;28;20033;-84
2020/12/09 08:31:19;;;;;;;42.97;25.10;;;;;;;2.98;86.91;99796.31;5058034;28;20072;-85
2020/12/09 08:33:47;;;;;;;43.92;24.33;;;;;;;3.08;86.83;99793.44;5066836;28;20044;-85
2020/12/09 08:36:15;;;;;;;47.10;24.70;;;;;;;3.12;85.75;99789.84;5068013;28;20068;-86
2020/12/09 08:38:51;;;;;;;41.40;22.98;;;;;;;3.06;84.49;99800.44;5079168;28;20029;-85
2020/12/09 08:41:33;;;;;;;42.30;23.73;;;;;;;2.98;84.29;99781.50;5070368;28;20032;-87
2020/12/09 08:44:05;;;;;;;46.38;25.13;;;;;;;2.92;83.04;99784.25;5086100;28;20101;-85
2020/12/09 08:46:33;;;;;;;46.53;24.55;;;;;;;2.85;83.86;99802.75;5075625;28;20048;-85
2020/12/09 08:49:00;;;;;;;45.35;24.85;;;;;;;2.86;85.16;99797.47;5075538;28;20048;-87
2020/12/09 08:51:31;;;;;;;40.35;24.27;;;;;;;3.01;83.93;99791.84;5073128;28;20068;-86
2020/12/09 08:54:00;;;;;;;41.47;23.55;;;;;;;3.15;83.60;99805.44;5055753;28;20053;-85
2020/12/09 08:56:34;;;;;;;40.05;23.35;;;;;;;3.18;82.91;99804.50;5057363;28;20046;-85
2020/12/09 08:59:01;;;;;;;40.03;24.48;;;;;;;3.22;83.08;99808.75;5055961;28;20132;-85
2020/12/09 09:01:28;;;;;;;38.92;24.10;;;;;;;3.28;83.28;99810.38;5068291;28;20041;-85
2020/12/09 09:04:04;;;;;;;40.58;23.85;;;;;;;3.35;82.79;99809.28;5070619;28;20130;-84
2020/12/09 09:06:30;;;;;;;41.60;23.88;;;;;;;3.35;81.79;99804.91;5070634;28;20100;-86
2020/12/09 09:08:57;;;;;;;40.83;23.67;;;;;;;3.34;81.77;99810.19;5070534;28;20049;-85
2020/12/09 09:11:30;;;;;;;45.25;24.40;;;;;;;3.35;82.29;99809.28;5064381;28;20048;-87
2020/12/09 09:13:57;;;;;;;44.85;24.90;;;;;;;3.40;82.12;99807.41;5064289;28;20059;-85
2020/12/09 09:16:26;;;;;;;44.13;25.35;;;;;;;3.44;81.75;99816.91;5062771;28;20071;-86
2020/12/09 09:18:55;;;;;;;42.80;25.45;;;;;;;3.49;82.43;99804.53;5059983;28;20481;-86
2020/12/09 09:21:24;;;;;;;42.28;24.92;;;;;;;3.52;82.17;99807.94;5066082;28;20135;-83
2020/12/09 09:23:50;;;;;;;43.95;26.08;;;;;;;3.52;81.69;99815.78;5066381;28;20057;-84
2020/12/09 09:26:19;;;;;;;45.92;25.38;;;;;;;3.52;81.14;99818.41;5067963;28;20100;-85
2020/12/09 09:28:46;;;;;;;49.10;24.17;;;;;;;3.49;81.64;99815.00;5075796;28;20044;-86
2020/12/09 09:31:14;;;;;;;44.47;25.80;;;;;;;3.52;81.54;99821.00;5076482;28;20113;-85
2020/12/09 09:33:40;;;;;;;52.00;25.95;;;;;;;3.57;80.96;99813.03;5077494;28;20077;-86
2020/12/09 09:36:09;;;;;;;43.03;25.08;;;;;;;3.60;81.32;99817.34;5078202;28;20037;-86
2020/12/09 09:38:38;;;;;;;46.95;25.67;;;;;;;3.64;81.32;99818.94;5077508;28;20061;-86
2020/12/09 09:41:07;;;;;;;47.80;26.05;;;;;;;3.71;80.86;99813.50;5077832;28;20059;-85
2020/12/09 09:43:34;;;;;;;42.55;25.65;;;;;;;3.76;80.64;99821.25;5077589;28;20041;-85
2020/12/09 09:46:01;;;;;;;41.92;24.95;;;;;;;3.81;80.96;99816.72;5074774;28;20075;-84
2020/12/09 09:48:28;;;;;;;44.10;25.55;;;;;;;3.81;81.35;99811.47;5072194;28;20085;-84
2020/12/09 09:50:55;;;;;;;45.22;25.17;;;;;;;3.88;80.57;99818.25;5057837;28;20057;-86
2020/12/09 09:53:27;;;;;;;41.20;24.52;;;;;;;3.85;79.91;99813.97;5066411;28;20068;-82
2020/12/09 09:56:05;;;;;;;44.00;25.10;;;;;;;3.88;80.18;99818.25;5067664;28;20488;-84
2020/12/09 09:58:39;;;;;;;43.63;24.45;;;;;;;3.89;79.84;99814.75;5056778;28;20049;-86
2020/12/09 10:01:15;;;;;;;43.63;24.92;;;;;;;3.91;78.77;99815.56;5057598;28;20055;-83
2020/12/09 10:03:42;;;;;;;41.70;25.75;;;;;;;3.95;79.27;99827.66;5062145;28;20091;-85
2020/12/09 10:06:10;;;;;;;44.20;25.77;;;;;;;3.95;80.06;99811.06;5048944;28;20507;-83
2020/12/09 10:09:07;;;;;;;41.85;25.40;;;;;;;4.08;80.40;99823.78;4999003;28;20065;-83
2020/12/09 10:11:42;;;;;;;42.95;24.63;;;;;;;4.08;79.18;99815.06;5015652;28;20073;-86
2020/12/09 10:14:22;;;;;;;46.42;26.23;;;;;;;4.04;79.88;99821.28;5029572;28;20068;-83
2020/12/09 10:16:51;;;;;;;42.10;25.45;;;;;;;4.05;80.17;99815.16;5028795;28;20038;-85
2020/12/09 10:19:19;;;;;;;41.95;26.00;;;;;;;4.10;79.94;99815.84;5026456;28;20100;-83
2020/12/09 10:21:47;;;;;;;44.88;25.98;;;;;;;4.06;79.21;99809.88;5023926;28;20081;-84
2020/12/09 10:24:14;;;;;;;44.13;26.27;;;;;;;4.00;79.51;99793.47;5022777;28;20050;-84
2020/12/09 10:26:43;;;;;;;46.38;26.88;;;;;;;4.08;79.46;99815.94;5024261;28;20045;-85
2020/12/09 10:29:12;;;;;;;45.65;26.33;;;;;;;4.04;79.79;99792.47;5019407;28;20042;-84
2020/12/09 10:31:53;;;;;;;40.60;24.42;;;;;;;4.11;78.64;99799.22;5020220;28;20054;-85
2020/12/09 10:34:20;;;;;;;40.60;25.67;;;;;;;4.28;78.81;99811.81;5050828;28;20052;-85
2020/12/09 10:36:50;;;;;;;42.75;26.38;;;;;;;4.14;79.03;99792.16;5061350;28;20076;-87
2020/12/09 10:39:25;;;;;;;47.97;28.15;;;;;;;4.14;78.03;99800.00;5063482;28;20041;-85
2020/12/09 10:41:52;;;;;;;44.95;24.73;;;;;;;4.21;78.81;99806.78;5068357;28;20069;-85
2020/12/09 10:44:26;;;;;;;42.30;24.95;;;;;;;4.22;78.59;99798.03;5060476;28;20079;-85
2020/12/09 10:46:54;;;;;;;44.42;24.95;;;;;;;4.25;78.31;99804.91;5062120;28;20037;-85
2020/12/09 10:49:31;;;;;;;41.42;25.00;;;;;;;4.26;78.34;99797.91;5071348;28;20056;-86
2020/12/09 10:51:58;;;;;;;40.03;24.70;;;;;;;4.28;78.51;99801.34;5067683;28;20049;-85
2020/12/09 10:54:26;;;;;;;41.75;25.17;;;;;;;4.26;78.23;99796.16;5057623;28;20057;-86
2020/12/09 10:57:12;;;;;;;45.80;26.70;;;;;;;4.26;78.37;99795.28;5054150;28;20179;-87
2020/12/09 10:59:39;;;;;;;;;;;;;;;4.30;78.54;99789.06;5062745;28;20539;-85
2020/12/09 11:02:07;;;;;;;44.80;26.08;;;;;;;4.39;78.94;99789.63;5057792;28;19974;-87
2020/12/09 11:04:34;;;;;;;45.78;27.60;;;;;;;4.41;78.73;99787.81;5061283;28;20069;-86
2020/12/09 11:07:07;;;;;;;47.47;27.42;;;;;;;4.45;78.88;99799.91;5053985;28;20056;-87
2020/12/09 11:09:34;;;;;;;47.25;26.42;;;;;;;4.48;79.00;99788.47;5057168;28;20051;-86
2020/12/09 11:12:01;;;;;;;48.03;25.77;;;;;;;4.52;78.82;99790.97;5063175;28;20055;-84
2020/12/09 11:14:36;;;;;;;43.78;26.75;;;;;;;4.50;77.87;99774.41;5058669;28;20045;-85
2020/12/09 11:17:04;;;;;;;43.50;25.83;;;;;;;4.58;78.03;99780.25;5051467;28;20033;-87
2020/12/09 11:19:33;;;;;;;44.08;27.10;;;;;;;4.68;78.45;99761.63;5051659;28;20052;-87
2020/12/09 11:22:00;;;;;;;47.60;27.50;;;;;;;4.78;77.52;99760.41;5055265;28;20048;-85
2020/12/09 11:24:27;;;;;;;51.00;26.90;;;;;;;4.85;77.90;99751.44;5063722;28;20045;-85
2020/12/09 11:26:55;;;;;;;45.53;26.77;;;;;;;4.92;77.09;99752.91;5054940;28;20044;-84
2020/12/09 11:29:37;;;;;;;46.70;27.58;;;;;;;4.92;76.54;99751.16;5062697;28;20123;-84
2020/12/09 11:32:04;;;;;;;44.40;27.08;;;;;;;5.00;77.12;99765.78;5062658;28;20520;-84
2020/12/09 11:34:31;;;;;;;47.08;27.13;;;;;;;5.02;77.24;99754.34;5062776;28;20056;-84
2020/12/09 11:37:06;;;;;;;46.20;26.80;;;;;;;5.03;76.51;99763.91;5062139;28;20189;-85
2020/12/09 11:39:33;;;;;;;44.85;27.23;;;;;;;5.07;76.29;99770.75;5061091;28;20076;-85